createdAt,value
2023-01-31T00:00:19.173Z,102224.44
2023-01-31T00:02:45.879Z,102224.09
2023-01-31T00:05:12.794Z,102236.63
2023-01-31T00:07:39.608Z,102246.22
2023-01-31T00:10:06.390Z,102257.31
2023-01-31T00:12:33.117Z,102249.75
2023-01-31T00:15:00.261Z,102244.69
2023-01-31T00:17:26.845Z,102250.44
2023-01-31T00:19:53.496Z,102237.84
2023-01-31T00:22:25.848Z,102241.81
2023-01-31T00:24:52.511Z,102242.63
2023-01-31T00:27:19.750Z,102245.16
2023-01-31T00:29:46.365Z,102245.53
2023-01-31T00:32:15.383Z,102245.28
2023-01-31T00:34:42.094Z,102247.25
2023-01-31T00:37:08.782Z,102233.69
2023-01-31T00:39:35.746Z,102242.50
2023-01-31T00:42:02.627Z,102229.88
2023-01-31T00:44:29.689Z,102234.19
2023-01-31T00:46:57.625Z,102231.19
2023-01-31T00:49:24.342Z,102231.13
2023-01-31T00:51:51.006Z,102230.59
2023-01-31T00:54:17.620Z,102234.69
2023-01-31T00:56:44.819Z,102246.50
2023-01-31T00:59:11.692Z,102253.69
2023-01-31T01:01:38.368Z,102251.75
2023-01-31T01:04:05.301Z,102256.19
2023-01-31T01:06:33.927Z,102254.16
2023-01-31T01:09:01.275Z,102242.34
2023-01-31T01:11:29.398Z,102249.38
2023-01-31T01:13:57.028Z,102251.19
2023-01-31T01:16:42.393Z,102250.72
2023-01-31T01:19:12.404Z,102249.75
2023-01-31T01:21:40.766Z,102251.00
2023-01-31T01:24:17.850Z,102255.38
2023-01-31T01:26:44.771Z,102250.88
2023-01-31T01:29:11.445Z,102266.72
2023-01-31T01:31:39.182Z,102266.34
2023-01-31T01:34:07.099Z,102266.22
2023-01-31T01:36:35.079Z,102262.22
2023-01-31T01:39:02.054Z,102273.53
2023-01-31T01:41:28.770Z,102273.25
2023-01-31T01:43:56.791Z,102273.31
2023-01-31T01:46:26.125Z,102264.16
2023-01-31T01:48:56.622Z,102260.41
2023-01-31T01:51:23.854Z,102258.91
2023-01-31T01:53:55.466Z,102261.88
2023-01-31T01:56:25.679Z,102263.88
2023-01-31T01:58:56.854Z,102256.25
2023-01-31T02:01:24.855Z,102256.31
2023-01-31T02:03:52.160Z,102251.94
2023-01-31T02:06:19.160Z,102250.44
2023-01-31T02:08:45.912Z,102251.09
2023-01-31T02:11:17.727Z,102262.88
2023-01-31T02:13:46.335Z,102256.66
2023-01-31T02:16:14.568Z,102262.91
2023-01-31T02:18:42.166Z,102261.63
2023-01-31T02:21:27.600Z,102260.34
2023-01-31T02:24:04.093Z,102258.25
2023-01-31T02:26:40.454Z,102251.38
2023-01-31T02:29:26.870Z,102244.09
2023-01-31T02:31:56.320Z,102253.72
2023-01-31T02:34:32.920Z,102252.25
2023-01-31T02:37:17.929Z,102256.34
2023-01-31T02:39:51.062Z,102253.28
2023-01-31T02:42:40.959Z,102255.59
2023-01-31T02:45:19.903Z,102261.84
2023-01-31T02:47:46.963Z,102265.47
2023-01-31T02:50:31.293Z,102256.41
2023-01-31T02:53:21.446Z,102259.03
2023-01-31T02:56:17.946Z,102244.44
2023-01-31T02:58:53.846Z,102254.88
2023-01-31T03:01:29.671Z,102248.63
2023-01-31T03:04:09.972Z,102248.44
2023-01-31T03:06:36.887Z,102245.47
2023-01-31T03:09:22.295Z,102245.06
2023-01-31T03:11:53.499Z,102247.22
2023-01-31T03:14:20.578Z,102247.22
2023-01-31T03:17:18.421Z,102254.84
2023-01-31T03:19:49.677Z,102258.59
2023-01-31T03:22:24.155Z,102257.16
2023-01-31T03:24:52.149Z,102259.56
2023-01-31T03:27:19.978Z,102258.19
2023-01-31T03:29:54.489Z,102267.81
2023-01-31T03:32:24.761Z,102255.66
2023-01-31T03:34:52.092Z,102257.97
2023-01-31T03:37:28.020Z,102270.53
2023-01-31T03:40:05.887Z,102262.81
2023-01-31T03:42:35.666Z,102254.19
2023-01-31T03:45:05.872Z,102265.28
2023-01-31T03:47:43.972Z,102267.28
2023-01-31T03:50:18.930Z,102268.97
2023-01-31T03:52:57.468Z,102266.44
2023-01-31T03:55:37.072Z,102262.50
2023-01-31T03:58:05.358Z,102270.63
2023-01-31T04:00:35.666Z,102272.66
2023-01-31T04:03:11.228Z,102263.88
2023-01-31T04:05:38.165Z,102256.28
2023-01-31T04:08:04.988Z,102264.41
2023-01-31T04:10:33.584Z,102264.41
2023-01-31T04:13:01.507Z,102275.50
2023-01-31T04:15:28.222Z,102267.88
2023-01-31T04:17:54.858Z,102256.72
2023-01-31T04:20:21.504Z,102258.72
2023-01-31T04:22:48.207Z,102262.63
2023-01-31T04:25:14.875Z,102267.69
2023-01-31T04:27:41.559Z,102269.69
2023-01-31T04:30:08.544Z,102273.31
2023-01-31T04:32:35.215Z,102271.59
2023-01-31T04:35:02.590Z,102283.06
2023-01-31T04:37:29.357Z,102273.88
2023-01-31T04:39:55.969Z,102272.72
2023-01-31T04:42:22.614Z,102283.91
2023-01-31T04:44:49.235Z,102292.44
2023-01-31T04:47:15.899Z,102287.69
2023-01-31T04:49:44.168Z,102290.84
2023-01-31T04:52:11.135Z,102295.50
2023-01-31T04:54:37.888Z,102294.63
2023-01-31T04:57:04.526Z,102291.38
2023-01-31T04:59:31.199Z,102297.47
2023-01-31T05:01:57.864Z,102300.47
2023-01-31T05:04:26.303Z,102288.75
2023-01-31T05:06:53.153Z,102291.59
2023-01-31T05:09:20.466Z,102285.28
2023-01-31T05:11:47.384Z,102285.69
2023-01-31T05:14:14.948Z,102287.00
2023-01-31T05:16:44.117Z,102278.00
2023-01-31T05:19:10.719Z,102283.81
2023-01-31T05:21:54.966Z,102284.63
2023-01-31T05:24:22.355Z,102287.03
2023-01-31T05:26:50.691Z,102287.28
2023-01-31T05:29:17.858Z,102287.94
2023-01-31T05:31:45.166Z,102284.34
2023-01-31T05:34:15.245Z,102285.09
2023-01-31T05:36:42.439Z,102291.28
2023-01-31T05:39:09.187Z,102292.66
2023-01-31T05:41:35.923Z,102281.00
2023-01-31T05:44:02.781Z,102284.06
2023-01-31T05:46:29.506Z,102262.44
2023-01-31T06:07:20.479Z,102278.56
2023-01-31T06:09:47.206Z,102283.31
2023-01-31T06:12:15.027Z,102277.28
2023-01-31T06:14:41.828Z,102285.13
2023-01-31T06:17:08.624Z,102279.44
2023-01-31T06:19:35.360Z,102283.25
2023-01-31T06:22:02.318Z,102279.69
2023-01-31T06:24:29.261Z,102277.13
2023-01-31T06:26:56.008Z,102285.19
2023-01-31T06:29:22.798Z,102285.00
2023-01-31T06:31:49.714Z,102286.16
2023-01-31T06:34:16.658Z,102288.38
2023-01-31T06:36:43.530Z,102291.44
2023-01-31T06:39:11.780Z,102293.09
2023-01-31T06:41:38.626Z,102281.25
2023-01-31T06:44:05.509Z,102268.78
2023-01-31T06:46:32.995Z,102300.88
2023-01-31T06:48:59.828Z,102313.16
2023-01-31T06:51:26.558Z,102306.19
2023-01-31T06:53:54.051Z,102301.88
2023-01-31T06:56:21.085Z,102295.88
2023-01-31T06:58:47.891Z,102298.66
2023-01-31T07:01:15.526Z,102297.44
2023-01-31T07:03:42.699Z,102294.16
2023-01-31T07:06:10.881Z,102295.53
2023-01-31T07:08:38.086Z,102303.00
2023-01-31T07:11:05.234Z,102300.56
2023-01-31T07:13:32.774Z,102285.84
2023-01-31T07:15:59.589Z,102294.59
2023-01-31T07:18:26.365Z,102293.09
2023-01-31T07:20:53.130Z,102290.16
2023-01-31T07:23:20.233Z,102301.66
2023-01-31T07:25:47.073Z,102307.97
2023-01-31T07:28:13.839Z,102313.13
2023-01-31T07:30:43.953Z,102319.56
2023-01-31T07:33:11.437Z,102324.63
2023-01-31T07:35:38.184Z,102326.22
2023-01-31T07:38:04.989Z,102321.91
2023-01-31T07:40:32.094Z,102340.47
2023-01-31T07:43:00.012Z,102338.38
2023-01-31T07:45:27.464Z,102343.75
2023-01-31T07:47:58.451Z,102342.94
2023-01-31T07:50:27.167Z,102342.06
2023-01-31T07:52:54.072Z,102341.13
2023-01-31T07:55:21.280Z,102348.22
2023-01-31T07:57:48.550Z,102349.81
2023-01-31T08:00:34.144Z,102358.44
2023-01-31T08:03:20.398Z,102354.75
2023-01-31T08:05:47.887Z,102352.75
2023-01-31T08:08:14.944Z,102361.19
2023-01-31T08:10:41.790Z,102371.22
2023-01-31T08:13:11.106Z,102378.41
2023-01-31T08:15:37.959Z,102381.25
2023-01-31T08:18:06.499Z,102384.44
2023-01-31T08:20:37.862Z,102386.53
2023-01-31T08:23:04.781Z,102377.38
2023-01-31T08:25:32.246Z,102382.00
2023-01-31T08:28:00.546Z,102378.09
2023-01-31T08:30:28.446Z,102393.31
2023-01-31T08:32:55.884Z,102385.75
2023-01-31T08:35:23.008Z,102384.81
2023-01-31T08:37:49.803Z,102402.91
2023-01-31T08:40:16.680Z,102392.97
2023-01-31T08:42:43.602Z,102395.81
2023-01-31T08:45:10.836Z,102400.91
2023-01-31T08:47:38.877Z,102407.47
2023-01-31T08:50:13.172Z,102408.94
2023-01-31T08:53:00.498Z,102415.97
2023-01-31T08:55:29.186Z,102416.44
2023-01-31T08:57:59.995Z,102426.66
2023-01-31T09:00:27.949Z,102434.38
2023-01-31T09:02:56.678Z,102423.25
2023-01-31T09:05:25.199Z,102424.94
2023-01-31T09:07:52.192Z,102431.16
2023-01-31T09:10:20.563Z,102433.13
2023-01-31T09:12:48.048Z,102436.94
2023-01-31T09:15:14.949Z,102444.28
2023-01-31T09:17:42.892Z,102446.94
2023-01-31T09:20:10.341Z,102453.69
2023-01-31T09:22:38.393Z,102448.59
2023-01-31T09:25:06.043Z,102456.09
2023-01-31T09:27:33.343Z,102463.63
2023-01-31T09:30:00.125Z,102470.91
2023-01-31T09:32:27.116Z,102473.25
2023-01-31T09:34:53.897Z,102474.16
2023-01-31T09:37:20.681Z,102466.97
2023-01-31T09:39:47.395Z,102467.38
2023-01-31T09:42:20.023Z,102468.03
2023-01-31T09:45:04.399Z,102476.88
2023-01-31T09:47:34.365Z,102475.34
2023-01-31T09:50:12.839Z,102488.69
2023-01-31T09:52:39.744Z,102487.50
2023-01-31T09:55:08.508Z,102484.38
2023-01-31T09:57:49.181Z,102489.34
2023-01-31T10:00:52.088Z,102490.91
2023-01-31T10:03:48.018Z,102493.91
2023-01-31T10:06:36.320Z,102491.19
2023-01-31T10:09:21.266Z,102488.41
2023-01-31T10:11:54.799Z,102497.44
2023-01-31T10:14:36.679Z,102503.22
2023-01-31T10:17:18.682Z,102493.22
2023-01-31T10:20:15.388Z,102486.59
2023-01-31T10:23:00.604Z,102496.00
2023-01-31T10:25:32.715Z,102499.09
2023-01-31T10:28:14.700Z,102506.97
2023-01-31T10:31:01.800Z,102500.09
2023-01-31T10:33:35.422Z,102488.97
2023-01-31T10:36:10.076Z,102490.41
2023-01-31T10:38:54.289Z,102478.09
2023-01-31T10:41:54.216Z,102474.69
2023-01-31T10:44:32.593Z,102476.13
2023-01-31T10:47:00.583Z,102463.31
2023-01-31T10:49:29.281Z,102462.09
2023-01-31T10:52:23.275Z,102466.03
2023-01-31T10:54:59.483Z,102466.84
2023-01-31T10:57:26.705Z,102465.81
2023-01-31T10:59:55.160Z,102461.88
2023-01-31T11:02:28.241Z,102457.84
2023-01-31T11:04:57.798Z,102449.38
2023-01-31T11:07:28.703Z,102436.56
2023-01-31T11:09:55.679Z,102438.56
2023-01-31T11:12:39.092Z,102444.56
2023-01-31T11:15:18.999Z,102434.22
2023-01-31T11:17:47.719Z,102432.59
2023-01-31T11:20:21.567Z,102436.31
2023-01-31T11:22:49.460Z,102430.69
2023-01-31T11:25:22.172Z,102425.97
2023-01-31T11:27:51.971Z,102428.28
2023-01-31T11:30:21.315Z,102430.72
2023-01-31T11:32:48.973Z,102415.53
2023-01-31T11:35:15.629Z,102420.72
2023-01-31T11:38:18.321Z,102410.09
2023-01-31T11:40:45.064Z,102417.69
2023-01-31T11:43:14.898Z,102411.38
2023-01-31T11:45:46.893Z,102415.16
2023-01-31T11:48:13.839Z,102407.44
2023-01-31T11:50:50.466Z,102406.03
2023-01-31T11:53:21.175Z,102412.91
2023-01-31T11:55:50.089Z,102415.03
2023-01-31T11:58:20.407Z,102415.56
2023-01-31T12:01:06.331Z,102410.09
2023-01-31T12:03:34.043Z,102419.19
2023-01-31T12:06:03.800Z,102423.38
2023-01-31T12:08:43.135Z,102418.13
2023-01-31T12:11:30.315Z,102419.25
2023-01-31T12:14:18.157Z,102412.09
2023-01-31T12:16:46.893Z,102415.59
2023-01-31T12:19:13.603Z,102415.56
2023-01-31T12:22:02.897Z,102413.28
2023-01-31T12:24:51.181Z,102417.69
2023-01-31T12:27:45.120Z,102415.88
2023-01-31T12:30:27.418Z,102404.03
2023-01-31T12:33:03.622Z,102404.34
2023-01-31T12:36:02.489Z,102406.56
2023-01-31T12:39:04.922Z,102400.41
2023-01-31T12:41:38.645Z,102400.97
2023-01-31T12:44:22.789Z,102397.59
2023-01-31T12:47:16.536Z,102392.28
2023-01-31T12:49:52.398Z,102391.72
2023-01-31T12:52:46.222Z,102388.13
2023-01-31T12:55:19.747Z,102387.59
2023-01-31T12:58:02.754Z,102371.00
2023-01-31T13:00:43.350Z,102372.69
2023-01-31T13:03:32.007Z,102376.41
2023-01-31T13:06:23.520Z,102375.41
2023-01-31T13:09:21.607Z,102356.16
2023-01-31T13:12:09.823Z,102363.69
2023-01-31T13:14:42.962Z,102365.38
2023-01-31T13:17:17.279Z,102366.19
2023-01-31T13:20:24.299Z,102365.41
2023-01-31T13:22:58.210Z,102357.19
2023-01-31T13:25:39.403Z,102348.47
2023-01-31T13:28:18.769Z,102360.19
2023-01-31T13:30:55.094Z,102356.81
2023-01-31T13:33:28.064Z,102350.00
2023-01-31T13:36:08.893Z,102345.38
2023-01-31T13:38:44.425Z,102347.66
2023-01-31T13:41:32.335Z,102351.84
2023-01-31T13:44:01.795Z,102357.56
2023-01-31T13:46:39.387Z,102350.09
2023-01-31T13:49:15.103Z,102337.22
2023-01-31T13:51:48.488Z,102347.06
2023-01-31T13:54:33.991Z,102343.94
2023-01-31T13:57:02.523Z,102346.06
2023-01-31T13:59:35.914Z,102340.94
2023-01-31T14:02:05.888Z,102336.22
2023-01-31T14:04:35.583Z,102341.09
2023-01-31T14:07:04.511Z,102342.63
2023-01-31T14:09:31.380Z,102348.56
2023-01-31T14:12:00.362Z,102337.75
2023-01-31T14:14:45.093Z,102342.91
2023-01-31T14:17:11.940Z,102342.41
2023-01-31T14:19:45.891Z,102345.00
2023-01-31T14:22:17.465Z,102337.31
2023-01-31T14:24:47.108Z,102330.53
2023-01-31T14:27:22.689Z,102333.78
2023-01-31T14:29:53.073Z,102340.81
2023-01-31T14:32:31.155Z,102332.06
2023-01-31T14:35:00.354Z,102332.66
2023-01-31T14:37:32.960Z,102338.91
2023-01-31T14:40:25.177Z,102338.22
2023-01-31T14:42:59.243Z,102341.72
2023-01-31T14:45:36.958Z,102342.13
2023-01-31T14:48:21.774Z,102342.13
2023-01-31T14:51:01.667Z,102342.44
2023-01-31T14:53:43.726Z,102349.16
2023-01-31T14:56:32.930Z,102348.91
2023-01-31T14:59:00.009Z,102343.72
2023-01-31T15:01:35.375Z,102349.22
2023-01-31T15:04:04.206Z,102356.03
2023-01-31T15:06:41.033Z,102351.19
2023-01-31T15:09:16.762Z,102352.34
2023-01-31T15:11:46.555Z,102363.50
2023-01-31T15:14:34.671Z,102354.19
2023-01-31T15:17:35.515Z,102362.13
2023-01-31T15:20:17.177Z,102366.78
2023-01-31T15:22:45.372Z,102373.94
2023-01-31T15:25:28.475Z,102380.41
2023-01-31T15:27:57.650Z,102377.38
2023-01-31T15:30:25.887Z,102377.06
2023-01-31T15:32:58.326Z,102381.47
2023-01-31T15:35:25.091Z,102379.25
2023-01-31T15:38:30.039Z,102381.09
2023-01-31T15:41:22.704Z,102380.00
2023-01-31T15:43:55.184Z,102387.63
2023-01-31T15:46:23.975Z,102390.97
2023-01-31T15:48:51.490Z,102385.63
2023-01-31T15:51:19.764Z,102386.34
2023-01-31T15:53:47.721Z,102387.31
2023-01-31T15:56:24.672Z,102390.97
2023-01-31T15:58:54.660Z,102381.66
2023-01-31T16:01:21.645Z,102399.22
2023-01-31T16:03:52.269Z,102404.56
2023-01-31T16:06:26.691Z,102413.25
2023-01-31T16:09:00.822Z,102406.69
2023-01-31T16:11:33.512Z,102394.66
2023-01-31T16:14:04.170Z,102396.31
2023-01-31T16:16:33.792Z,102401.22
2023-01-31T16:19:01.779Z,102406.69
2023-01-31T16:21:37.914Z,102401.38
2023-01-31T16:24:18.947Z,102408.81
2023-01-31T16:27:05.713Z,102406.97
2023-01-31T16:29:43.566Z,102406.81
2023-01-31T16:32:19.786Z,102420.47
2023-01-31T16:34:56.842Z,102421.31
2023-01-31T16:37:41.217Z,102416.81
2023-01-31T16:40:25.588Z,102410.66
2023-01-31T16:43:10.083Z,102417.78
2023-01-31T16:45:40.616Z,102426.94
2023-01-31T16:48:24.610Z,102425.41
2023-01-31T16:50:57.292Z,102418.81
2023-01-31T16:53:30.582Z,102417.22
2023-01-31T16:56:16.569Z,102425.22
2023-01-31T16:58:57.719Z,102423.94
2023-01-31T17:01:34.929Z,102424.41
2023-01-31T17:04:17.273Z,102422.03
2023-01-31T17:06:46.568Z,102428.75
2023-01-31T17:09:19.059Z,102427.94
2023-01-31T17:11:48.475Z,102439.72
2023-01-31T17:14:15.208Z,102441.56
2023-01-31T17:16:42.012Z,102442.16
2023-01-31T17:19:09.107Z,102436.97
2023-01-31T17:21:41.054Z,102439.91
2023-01-31T17:24:17.688Z,102437.53
2023-01-31T17:26:45.202Z,102443.97
2023-01-31T17:29:12.550Z,102448.78
2023-01-31T17:31:39.476Z,102444.28
2023-01-31T17:34:12.793Z,102435.56
2023-01-31T17:36:39.695Z,102440.06
2023-01-31T17:39:07.792Z,102439.53
2023-01-31T17:41:34.884Z,102445.13
2023-01-31T17:44:06.639Z,102451.72
2023-01-31T17:46:35.174Z,102445.41
2023-01-31T17:49:01.955Z,102440.38
2023-01-31T17:51:28.744Z,102442.31
2023-01-31T17:53:55.536Z,102449.63
2023-01-31T17:56:22.308Z,102451.44
2023-01-31T17:58:49.564Z,102441.94
2023-01-31T18:01:16.550Z,102450.91
2023-01-31T18:03:43.634Z,102453.00
2023-01-31T18:06:11.195Z,102446.00
2023-01-31T18:08:38.222Z,102453.13
2023-01-31T18:11:15.092Z,102458.75
2023-01-31T18:13:42.673Z,102455.13
2023-01-31T18:16:18.381Z,102451.31
2023-01-31T18:18:45.138Z,102454.41
2023-01-31T18:21:15.640Z,102452.44
2023-01-31T18:23:53.334Z,102442.91
2023-01-31T18:26:21.675Z,102445.00
2023-01-31T18:28:49.063Z,102446.97
2023-01-31T18:31:17.698Z,102453.72
2023-01-31T18:33:46.874Z,102453.81
2023-01-31T18:36:21.448Z,102449.66
2023-01-31T18:38:49.492Z,102442.91
2023-01-31T18:41:19.138Z,102444.56
2023-01-31T18:43:47.867Z,102441.75
2023-01-31T18:46:16.936Z,102451.56
2023-01-31T18:48:44.199Z,102446.09
2023-01-31T18:51:13.188Z,102436.84
2023-01-31T18:53:42.621Z,102434.88
2023-01-31T18:56:14.959Z,102440.31
2023-01-31T18:58:42.105Z,102445.75
2023-01-31T19:01:20.887Z,102445.56
2023-01-31T19:03:56.037Z,102447.78
2023-01-31T19:06:27.487Z,102452.13
2023-01-31T19:08:56.795Z,102454.78
2023-01-31T19:11:26.792Z,102445.69
2023-01-31T19:13:53.732Z,102441.81
2023-01-31T19:16:26.859Z,102443.41
2023-01-31T19:18:55.459Z,102440.75
2023-01-31T19:21:28.434Z,102431.22
2023-01-31T19:23:57.795Z,102440.00
2023-01-31T19:26:25.008Z,102444.22
2023-01-31T19:28:52.664Z,102440.94
2023-01-31T19:31:22.357Z,102428.78
2023-01-31T19:33:50.535Z,102430.16
2023-01-31T19:36:20.101Z,102436.38
2023-01-31T19:38:47.051Z,102437.31
2023-01-31T19:41:19.428Z,102438.34
2023-01-31T19:43:48.760Z,102435.81
2023-01-31T19:46:15.923Z,102447.34
2023-01-31T19:48:42.684Z,102447.38
2023-01-31T19:51:12.322Z,102441.78
2023-01-31T19:53:40.132Z,102441.50
2023-01-31T19:56:07.580Z,102444.78
2023-01-31T19:58:34.877Z,102457.69
2023-01-31T20:01:04.180Z,102461.44
2023-01-31T20:03:31.726Z,102457.56
2023-01-31T20:06:19.766Z,102459.25
2023-01-31T20:08:53.951Z,102459.22
2023-01-31T20:11:21.242Z,102463.88
2023-01-31T20:13:52.591Z,102458.56
2023-01-31T20:16:20.205Z,102458.56
2023-01-31T20:18:48.088Z,102457.00
2023-01-31T20:21:17.170Z,102457.00
2023-01-31T20:23:44.036Z,102455.34
2023-01-31T20:26:15.383Z,102465.09
2023-01-31T20:28:43.614Z,102461.03
2023-01-31T20:31:12.693Z,102458.75
2023-01-31T20:33:39.732Z,102466.22
2023-01-31T20:36:07.069Z,102466.97
2023-01-31T20:38:33.939Z,102457.69
2023-01-31T20:41:00.829Z,102463.94
2023-01-31T20:43:27.746Z,102463.94
2023-01-31T20:46:02.431Z,102462.09
2023-01-31T20:48:29.266Z,102463.69
2023-01-31T20:50:57.596Z,102469.34
2023-01-31T20:53:25.113Z,102465.13
2023-01-31T20:56:01.139Z,102462.63
2023-01-31T20:58:30.132Z,102467.44
2023-01-31T21:00:57.638Z,102461.41
2023-01-31T21:03:24.807Z,102463.81
2023-01-31T21:05:52.157Z,102460.03
2023-01-31T21:08:21.020Z,102462.91
2023-01-31T21:10:52.853Z,102456.31
2023-01-31T21:13:21.096Z,102462.22
2023-01-31T21:15:52.010Z,102468.03
2023-01-31T21:18:19.684Z,102468.75
2023-01-31T21:20:47.424Z,102457.38
2023-01-31T21:23:14.253Z,102456.56
2023-01-31T21:25:41.047Z,102461.25
2023-01-31T21:28:08.077Z,102461.72
2023-01-31T21:30:34.991Z,102470.16
2023-01-31T21:33:01.854Z,102464.25
2023-01-31T21:35:28.719Z,102457.34
2023-01-31T21:37:55.603Z,102457.75
2023-01-31T21:40:23.232Z,102460.13
2023-01-31T21:42:54.176Z,102455.78
2023-01-31T21:45:40.069Z,102465.38
2023-01-31T21:48:29.867Z,102460.03
2023-01-31T21:50:57.562Z,102452.81
2023-01-31T21:53:26.391Z,102461.75
2023-01-31T21:56:06.045Z,102454.03
2023-01-31T21:58:34.202Z,102453.81
2023-01-31T22:01:06.241Z,102460.91
2023-01-31T22:03:33.886Z,102451.66
2023-01-31T22:06:03.274Z,102454.06
2023-01-31T22:08:30.440Z,102450.22
2023-01-31T22:11:02.226Z,102450.44
2023-01-31T22:13:29.212Z,102451.16
2023-01-31T22:16:08.649Z,102441.06
2023-01-31T22:18:36.812Z,102453.22
2023-01-31T22:21:10.140Z,102453.22
2023-01-31T22:23:38.617Z,102453.81
2023-01-31T22:26:11.575Z,102457.56
2023-01-31T22:28:39.691Z,102445.28
2023-01-31T22:31:08.280Z,102446.81
2023-01-31T22:33:38.112Z,102446.22
2023-01-31T22:36:06.611Z,102449.50
2023-01-31T22:38:33.855Z,102445.41
2023-01-31T22:41:03.818Z,102445.63
2023-01-31T22:43:31.509Z,102448.38
2023-01-31T22:45:59.549Z,102455.38
2023-01-31T22:48:26.865Z,102455.38
2023-01-31T22:51:13.798Z,102445.03
2023-01-31T22:53:41.166Z,102447.06
2023-01-31T22:56:18.205Z,102452.63
2023-01-31T22:58:45.822Z,102463.59
2023-01-31T23:01:16.508Z,102455.53
2023-01-31T23:03:43.582Z,102451.31
2023-01-31T23:06:11.376Z,102458.75
2023-01-31T23:08:38.693Z,102450.56
2023-01-31T23:11:09.911Z,102457.19
2023-01-31T23:13:37.599Z,102452.94
2023-01-31T23:16:05.871Z,102452.25
2023-01-31T23:18:33.381Z,102459.31
2023-01-31T23:21:19.387Z,102455.06
2023-01-31T23:23:46.434Z,102452.03
2023-01-31T23:26:13.469Z,102446.84
2023-01-31T23:28:40.946Z,102448.84
2023-01-31T23:31:08.128Z,102445.53
2023-01-31T23:33:35.199Z,102450.25
2023-01-31T23:36:02.712Z,102449.94
2023-01-31T23:38:29.595Z,102456.59
2023-01-31T23:40:56.411Z,102453.03
2023-01-31T23:43:23.428Z,102453.22
2023-01-31T23:45:50.364Z,102448.63
2023-01-31T23:48:17.620Z,102457.94
2023-01-31T23:50:44.539Z,102454.44
2023-01-31T23:53:11.316Z,102456.75
2023-01-31T23:55:38.075Z,102453.50
2023-01-31T23:58:05.333Z,102448.78
